Strona główna
METAR-TAF:

METAR-TAF

Lotnisko :

Kurytyba, Parana, Brazylia

Szerokość geograficzna: 25-26S, Długość geograficzna: 049-16W, wysokość: 924 m

Aktualna obserwacja pogody

Raport powstał 1 godzina i 20 minut temu, godzina 00:00 UTC
Wiatr 6 kt od północny wschód
Temperatura 17°C
Wilgotność 94%
Ciśnienie 1019 hPa
Widzialność 10 km lub więcej
Przerywane chmury na wysokości 600 ft

METAR: SBBI 060000Z 04006KT 9999 BKN006 17/16 Q1019

czas: 22:20 (01:20 UTC)

Prognoza

Raport powstał 10 godziny i 20 minut temu, godzina 15:00 UTC
Prognoza ważna od 05 godzina 18 UTC do 06 godzina 06 UTC
Wiatr 5 kt od północ
Widzialność 10 km lub więcej
Mało chmury na wysokości 4000 ft
Stopniowe zmiany
od 05 godzina 19 UTC do 05 godzina 21 UTC
Wiatr 5 kt od wschód
Widzialność 10 km lub więcej
Brak chmur poniżej 1500 m i brak chmur cumulonimbus

TAF: SBBI 051500Z 0518/0606 35005KT 9999 FEW040 TX26/0518Z TN14/0606Z BECMG 0519/0521 10005KT CAVOK RMK PDY

Obserwacja i prognoza pogody dla ponad 4000 lotnisk (raport METAR i TAF).

Dostępne stacje oznaczono żółtymi i czerwonymi punktami na mapie.

Najedź kursorem aby zobaczyć nazwę stacji.

Kliknij aby zobaczyć obserwacje i prognozy pogody.

Aby zmienić mapę: kliknij na zielony przycisk z czarnym krzyżykiem, aby powiększyć; na zielony przycisk z myślnikiem, aby pomniejszyć; na zielone strzałki, aby przejść do map sąsiednich.


METAR-TAF: